sensor_id;sensor_type;location;lat;lon;timestamp;temperature;humidity
46816;DHT22;32787;53.316;8.670;2023-11-22T00:00:12;1.90;95.80
46816;DHT22;32787;53.316;8.670;2023-11-22T00:02:39;2.00;95.90
46816;DHT22;32787;53.316;8.670;2023-11-22T00:05:05;1.90;95.80
46816;DHT22;32787;53.316;8.670;2023-11-22T00:07:32;1.70;95.50
46816;DHT22;32787;53.316;8.670;2023-11-22T00:09:58;1.70;95.40
46816;DHT22;32787;53.316;8.670;2023-11-22T00:12:24;1.40;95.40
46816;DHT22;32787;53.316;8.670;2023-11-22T00:14:50;1.30;95.50
46816;DHT22;32787;53.316;8.670;2023-11-22T00:17:17;1.30;95.50
46816;DHT22;32787;53.316;8.670;2023-11-22T00:19:44;1.10;95.40
46816;DHT22;32787;53.316;8.670;2023-11-22T00:22:10;0.90;95.40
46816;DHT22;32787;53.316;8.670;2023-11-22T00:24:40;0.80;95.50
46816;DHT22;32787;53.316;8.670;2023-11-22T00:27:06;0.80;95.70
46816;DHT22;32787;53.316;8.670;2023-11-22T00:29:32;0.80;95.70
46816;DHT22;32787;53.316;8.670;2023-11-22T00:31:58;0.80;95.70
46816;DHT22;32787;53.316;8.670;2023-11-22T00:34:24;0.70;95.70
46816;DHT22;32787;53.316;8.670;2023-11-22T00:36:50;0.70;95.80
46816;DHT22;32787;53.316;8.670;2023-11-22T00:39:16;0.60;95.80
46816;DHT22;32787;53.316;8.670;2023-11-22T00:41:42;0.60;95.80
46816;DHT22;32787;53.316;8.670;2023-11-22T00:44:09;0.80;96.00
46816;DHT22;32787;53.316;8.670;2023-11-22T00:46:35;1.00;96.00
46816;DHT22;32787;53.316;8.670;2023-11-22T00:49:02;1.10;95.80
46816;DHT22;32787;53.316;8.670;2023-11-22T00:51:30;0.90;95.70
46816;DHT22;32787;53.316;8.670;2023-11-22T00:53:57;0.60;95.70
46816;DHT22;32787;53.316;8.670;2023-11-22T00:56:22;0.60;95.80
46816;DHT22;32787;53.316;8.670;2023-11-22T00:58:48;0.50;95.70
46816;DHT22;32787;53.316;8.670;2023-11-22T01:01:20;0.40;95.70
46816;DHT22;32787;53.316;8.670;2023-11-22T01:03:46;0.30;95.80
46816;DHT22;32787;53.316;8.670;2023-11-22T01:06:12;0.40;95.90
46816;DHT22;32787;53.316;8.670;2023-11-22T01:08:38;0.40;95.90
46816;DHT22;32787;53.316;8.670;2023-11-22T01:11:04;0.40;96.00
46816;DHT22;32787;53.316;8.670;2023-11-22T01:13:31;0.30;96.10
46816;DHT22;32787;53.316;8.670;2023-11-22T01:15:58;0.40;96.10
46816;DHT22;32787;53.316;8.670;2023-11-22T01:18:24;0.60;96.20
46816;DHT22;32787;53.316;8.670;2023-11-22T01:20:49;0.70;96.10
46816;DHT22;32787;53.316;8.670;2023-11-22T01:23:15;0.60;96.00
46816;DHT22;32787;53.316;8.670;2023-11-22T01:25:40;0.60;95.90
46816;DHT22;32787;53.316;8.670;2023-11-22T01:28:06;0.60;95.90
46816;DHT22;32787;53.316;8.670;2023-11-22T01:30:36;0.40;95.70
46816;DHT22;32787;53.316;8.670;2023-11-22T01:33:03;0.20;95.70
46816;DHT22;32787;53.316;8.670;2023-11-22T01:35:28;0.10;95.70
46816;DHT22;32787;53.316;8.670;2023-11-22T01:37:54;0.00;95.70
46816;DHT22;32787;53.316;8.670;2023-11-22T01:40:21;0.00;95.80
46816;DHT22;32787;53.316;8.670;2023-11-22T01:42:48;0.20;95.90
46816;DHT22;32787;53.316;8.670;2023-11-22T01:45:13;0.20;95.80
46816;DHT22;32787;53.316;8.670;2023-11-22T01:47:39;0.10;95.80
46816;DHT22;32787;53.316;8.670;2023-11-22T01:50:06;0.00;95.80
46816;DHT22;32787;53.316;8.670;2023-11-22T01:52:33;0.00;95.80
46816;DHT22;32787;53.316;8.670;2023-11-22T01:55:01;0.00;95.80
46816;DHT22;32787;53.316;8.670;2023-11-22T01:57:31;0.00;95.90
46816;DHT22;32787;53.316;8.670;2023-11-22T01:59:58;-3276.70;95.90
46816;DHT22;32787;53.316;8.670;2023-11-22T02:02:23;0.00;96.00
46816;DHT22;32787;53.316;8.670;2023-11-22T02:04:49;0.00;96.00
46816;DHT22;32787;53.316;8.670;2023-11-22T02:07:15;0.00;96.00
46816;DHT22;32787;53.316;8.670;2023-11-22T02:09:42;0.00;96.00
46816;DHT22;32787;53.316;8.670;2023-11-22T02:12:07;0.00;96.10
46816;DHT22;32787;53.316;8.670;2023-11-22T02:14:34;0.00;96.10
46816;DHT22;32787;53.316;8.670;2023-11-22T02:16:59;0.00;96.10
46816;DHT22;32787;53.316;8.670;2023-11-22T02:19:26;-3276.70;96.10
46816;DHT22;32787;53.316;8.670;2023-11-22T02:21:51;-3276.70;96.10
46816;DHT22;32787;53.316;8.670;2023-11-22T02:24:17;-3276.70;96.10
46816;DHT22;32787;53.316;8.670;2023-11-22T02:26:44;0.00;96.20
46816;DHT22;32787;53.316;8.670;2023-11-22T02:29:10;0.00;96.20
46816;DHT22;32787;53.316;8.670;2023-11-22T02:31:35;-3276.70;96.20
46816;DHT22;32787;53.316;8.670;2023-11-22T02:34:01;-3276.60;96.20
46816;DHT22;32787;53.316;8.670;2023-11-22T02:36:26;-3276.70;96.20
46816;DHT22;32787;53.316;8.670;2023-11-22T02:38:52;-3276.70;96.20
46816;DHT22;32787;53.316;8.670;2023-11-22T02:41:18;0.00;96.30
46816;DHT22;32787;53.316;8.670;2023-11-22T02:43:44;0.00;96.20
46816;DHT22;32787;53.316;8.670;2023-11-22T02:46:09;0.20;96.30
46816;DHT22;32787;53.316;8.670;2023-11-22T02:48:35;0.40;96.20
46816;DHT22;32787;53.316;8.670;2023-11-22T02:51:01;0.40;96.20
46816;DHT22;32787;53.316;8.670;2023-11-22T02:53:27;0.70;96.20
46816;DHT22;32787;53.316;8.670;2023-11-22T02:55:53;0.50;96.10
46816;DHT22;32787;53.316;8.670;2023-11-22T02:58:21;0.60;95.90
46816;DHT22;32787;53.316;8.670;2023-11-22T03:00:47;0.60;95.80
46816;DHT22;32787;53.316;8.670;2023-11-22T03:03:13;0.30;95.50
46816;DHT22;32787;53.316;8.670;2023-11-22T03:05:39;0.30;95.60
46816;DHT22;32787;53.316;8.670;2023-11-22T03:08:05;0.10;95.50
46816;DHT22;32787;53.316;8.670;2023-11-22T03:10:33;0.00;95.50
46816;DHT22;32787;53.316;8.670;2023-11-22T03:12:59;0.00;95.50
46816;DHT22;32787;53.316;8.670;2023-11-22T03:15:24;0.20;95.70
46816;DHT22;32787;53.316;8.670;2023-11-22T03:17:51;0.40;95.70
46816;DHT22;32787;53.316;8.670;2023-11-22T03:20:16;0.40;95.50
46816;DHT22;32787;53.316;8.670;2023-11-22T03:22:42;0.40;95.40
46816;DHT22;32787;53.316;8.670;2023-11-22T03:25:10;0.20;95.30
46816;DHT22;32787;53.316;8.670;2023-11-22T03:27:36;0.00;95.10
46816;DHT22;32787;53.316;8.670;2023-11-22T03:30:03;-3276.60;95.20
46816;DHT22;32787;53.316;8.670;2023-11-22T03:32:28;-3276.50;95.30
46816;DHT22;32787;53.316;8.670;2023-11-22T03:34:54;-3276.50;95.40
46816;DHT22;32787;53.316;8.670;2023-11-22T03:37:20;-3276.60;95.70
46816;DHT22;32787;53.316;8.670;2023-11-22T03:39:46;0.00;95.60
46816;DHT22;32787;53.316;8.670;2023-11-22T03:42:16;-3276.60;95.70
46816;DHT22;32787;53.316;8.670;2023-11-22T03:44:43;-3276.40;95.80
46816;DHT22;32787;53.316;8.670;2023-11-22T03:47:10;-3276.50;95.90
46816;DHT22;32787;53.316;8.670;2023-11-22T03:49:39;0.00;95.90
46816;DHT22;32787;53.316;8.670;2023-11-22T03:52:05;0.00;95.80
46816;DHT22;32787;53.316;8.670;2023-11-22T03:54:31;0.00;95.90
46816;DHT22;32787;53.316;8.670;2023-11-22T03:56:58;0.00;95.90
46816;DHT22;32787;53.316;8.670;2023-11-22T03:59:24;0.10;95.90
46816;DHT22;32787;53.316;8.670;2023-11-22T04:01:50;0.00;95.70
46816;DHT22;32787;53.316;8.670;2023-11-22T04:04:16;-3276.50;95.70
46816;DHT22;32787;53.316;8.670;2023-11-22T04:06:42;-3276.50;95.80
46816;DHT22;32787;53.316;8.670;2023-11-22T04:09:08;0.00;96.00
46816;DHT22;32787;53.316;8.670;2023-11-22T04:11:41;0.00;95.70
46816;DHT22;32787;53.316;8.670;2023-11-22T04:14:07;-3276.50;95.60
46816;DHT22;32787;53.316;8.670;2023-11-22T04:16:33;-3276.50;95.70
46816;DHT22;32787;53.316;8.670;2023-11-22T04:18:59;-3276.50;95.60
46816;DHT22;32787;53.316;8.670;2023-11-22T04:21:25;-3276.60;95.70
46816;DHT22;32787;53.316;8.670;2023-11-22T04:23:51;-3276.50;95.70
46816;DHT22;32787;53.316;8.670;2023-11-22T04:26:16;-3276.50;95.80
46816;DHT22;32787;53.316;8.670;2023-11-22T04:28:42;-3276.40;95.70
46816;DHT22;32787;53.316;8.670;2023-11-22T04:31:08;-3276.30;95.80
46816;DHT22;32787;53.316;8.670;2023-11-22T04:33:36;-3276.30;95.90
46816;DHT22;32787;53.316;8.670;2023-11-22T04:36:03;-3276.60;96.10
46816;DHT22;32787;53.316;8.670;2023-11-22T04:38:28;-3276.70;95.80
46816;DHT22;32787;53.316;8.670;2023-11-22T04:40:54;-3276.60;95.70
46816;DHT22;32787;53.316;8.670;2023-11-22T04:43:20;-3276.50;95.70
46816;DHT22;32787;53.316;8.670;2023-11-22T04:45:45;-3276.40;95.70
46816;DHT22;32787;53.316;8.670;2023-11-22T04:48:11;-3276.50;95.90
46816;DHT22;32787;53.316;8.670;2023-11-22T04:50:37;-3276.40;95.80
46816;DHT22;32787;53.316;8.670;2023-11-22T04:53:02;-3276.30;95.90
46816;DHT22;32787;53.316;8.670;2023-11-22T04:55:28;-3276.40;95.90
46816;DHT22;32787;53.316;8.670;2023-11-22T04:57:54;-3276.30;95.90
46816;DHT22;32787;53.316;8.670;2023-11-22T05:00:21;-3276.40;95.90
46816;DHT22;32787;53.316;8.670;2023-11-22T05:02:48;-3276.30;95.90
46816;DHT22;32787;53.316;8.670;2023-11-22T05:05:14;-3276.60;96.00
46816;DHT22;32787;53.316;8.670;2023-11-22T05:07:40;-3276.60;95.90
46816;DHT22;32787;53.316;8.670;2023-11-22T05:10:06;-3276.40;95.80
46816;DHT22;32787;53.316;8.670;2023-11-22T05:12:34;-3276.30;95.80
46816;DHT22;32787;53.316;8.670;2023-11-22T05:15:01;-3276.20;95.90
46816;DHT22;32787;53.316;8.670;2023-11-22T05:17:26;-3276.30;96.00
46816;DHT22;32787;53.316;8.670;2023-11-22T05:19:52;-3276.30;96.00
46816;DHT22;32787;53.316;8.670;2023-11-22T05:22:18;-3276.40;95.90
46816;DHT22;32787;53.316;8.670;2023-11-22T05:24:44;-3276.30;96.10
46816;DHT22;32787;53.316;8.670;2023-11-22T05:27:09;-3276.20;96.10
46816;DHT22;32787;53.316;8.670;2023-11-22T05:29:35;-3276.20;96.10
46816;DHT22;32787;53.316;8.670;2023-11-22T05:32:02;-3276.10;96.10
46816;DHT22;32787;53.316;8.670;2023-11-22T05:34:28;-3276.10;96.20
46816;DHT22;32787;53.316;8.670;2023-11-22T05:36:54;-3276.10;96.20
46816;DHT22;32787;53.316;8.670;2023-11-22T05:39:20;-3276.20;96.20
46816;DHT22;32787;53.316;8.670;2023-11-22T05:41:47;-3276.10;96.20
46816;DHT22;32787;53.316;8.670;2023-11-22T05:44:14;-3276.10;96.30
46816;DHT22;32787;53.316;8.670;2023-11-22T05:46:39;-3276.10;96.30
46816;DHT22;32787;53.316;8.670;2023-11-22T05:49:05;-3276.10;96.30
46816;DHT22;32787;53.316;8.670;2023-11-22T05:51:32;-3276.10;96.40
46816;DHT22;32787;53.316;8.670;2023-11-22T05:53:57;-3276.30;96.50
46816;DHT22;32787;53.316;8.670;2023-11-22T05:56:23;-3276.30;96.20
46816;DHT22;32787;53.316;8.670;2023-11-22T05:58:49;-3276.20;96.20
46816;DHT22;32787;53.316;8.670;2023-11-22T06:01:14;-3276.10;96.20
46816;DHT22;32787;53.316;8.670;2023-11-22T06:03:42;-3276.10;96.20
46816;DHT22;32787;53.316;8.670;2023-11-22T06:06:08;-3276.10;96.20
46816;DHT22;32787;53.316;8.670;2023-11-22T06:08:33;-3276.30;96.20
46816;DHT22;32787;53.316;8.670;2023-11-22T06:10:59;-3276.50;96.30
46816;DHT22;32787;53.316;8.670;2023-11-22T06:13:25;-3276.60;96.20
46816;DHT22;32787;53.316;8.670;2023-11-22T06:15:51;-3276.50;96.40
46816;DHT22;32787;53.316;8.670;2023-11-22T06:18:17;-3276.40;96.10
46816;DHT22;32787;53.316;8.670;2023-11-22T06:20:44;-3276.20;96.10
46816;DHT22;32787;53.316;8.670;2023-11-22T06:23:10;-3276.50;96.10
46816;DHT22;32787;53.316;8.670;2023-11-22T06:25:36;-3276.30;96.10
46816;DHT22;32787;53.316;8.670;2023-11-22T06:28:02;-3276.40;96.20
46816;DHT22;32787;53.316;8.670;2023-11-22T06:30:28;-3276.50;96.00
46816;DHT22;32787;53.316;8.670;2023-11-22T06:32:53;-3276.30;96.10
46816;DHT22;32787;53.316;8.670;2023-11-22T06:35:19;-3276.30;96.10
46816;DHT22;32787;53.316;8.670;2023-11-22T06:37:45;-3276.40;96.10
46816;DHT22;32787;53.316;8.670;2023-11-22T06:40:11;-3276.40;96.10
46816;DHT22;32787;53.316;8.670;2023-11-22T06:42:40;-3276.70;96.30
46816;DHT22;32787;53.316;8.670;2023-11-22T06:45:07;0.00;96.10
46816;DHT22;32787;53.316;8.670;2023-11-22T06:47:36;0.00;96.10
46816;DHT22;32787;53.316;8.670;2023-11-22T06:50:02;0.10;96.00
46816;DHT22;32787;53.316;8.670;2023-11-22T06:52:40;0.00;96.00
46816;DHT22;32787;53.316;8.670;2023-11-22T06:55:06;0.00;95.90
46816;DHT22;32787;53.316;8.670;2023-11-22T06:57:35;0.00;96.00
46816;DHT22;32787;53.316;8.670;2023-11-22T07:00:02;0.00;96.10
46816;DHT22;32787;53.316;8.670;2023-11-22T07:02:31;0.20;96.00
46816;DHT22;32787;53.316;8.670;2023-11-22T07:04:57;0.10;96.00
46816;DHT22;32787;53.316;8.670;2023-11-22T07:07:24;0.10;96.10
46816;DHT22;32787;53.316;8.670;2023-11-22T07:09:50;0.20;96.10
46816;DHT22;32787;53.316;8.670;2023-11-22T07:12:16;0.20;96.10
46816;DHT22;32787;53.316;8.670;2023-11-22T07:14:42;0.10;96.10
46816;DHT22;32787;53.316;8.670;2023-11-22T07:17:08;0.10;96.10
46816;DHT22;32787;53.316;8.670;2023-11-22T07:19:34;0.00;96.10
46816;DHT22;32787;53.316;8.670;2023-11-22T07:22:04;0.10;96.10
46816;DHT22;32787;53.316;8.670;2023-11-22T07:24:30;0.10;96.20
46816;DHT22;32787;53.316;8.670;2023-11-22T07:26:59;0.10;96.10
46816;DHT22;32787;53.316;8.670;2023-11-22T07:29:26;0.10;96.10
46816;DHT22;32787;53.316;8.670;2023-11-22T07:31:54;0.10;96.20
46816;DHT22;32787;53.316;8.670;2023-11-22T07:34:21;0.10;96.20
46816;DHT22;32787;53.316;8.670;2023-11-22T07:36:47;0.10;96.30
46816;DHT22;32787;53.316;8.670;2023-11-22T07:39:12;0.20;96.30
46816;DHT22;32787;53.316;8.670;2023-11-22T07:41:38;0.30;96.30
46816;DHT22;32787;53.316;8.670;2023-11-22T07:44:04;0.40;96.30
46816;DHT22;32787;53.316;8.670;2023-11-22T07:46:30;0.50;96.30
46816;DHT22;32787;53.316;8.670;2023-11-22T07:48:56;0.60;96.40
46816;DHT22;32787;53.316;8.670;2023-11-22T07:51:23;0.60;96.40
46816;DHT22;32787;53.316;8.670;2023-11-22T07:53:49;0.60;96.50
46816;DHT22;32787;53.316;8.670;2023-11-22T07:56:15;0.80;96.50
46816;DHT22;32787;53.316;8.670;2023-11-22T07:58:40;0.70;96.30
46816;DHT22;32787;53.316;8.670;2023-11-22T08:01:06;0.80;96.30
46816;DHT22;32787;53.316;8.670;2023-11-22T08:03:39;0.90;96.20
46816;DHT22;32787;53.316;8.670;2023-11-22T08:06:06;0.80;96.20
46816;DHT22;32787;53.316;8.670;2023-11-22T08:08:33;0.70;96.20
46816;DHT22;32787;53.316;8.670;2023-11-22T08:11:03;0.70;96.30
46816;DHT22;32787;53.316;8.670;2023-11-22T08:13:29;0.80;96.30
46816;DHT22;32787;53.316;8.670;2023-11-22T08:15:55;1.00;96.30
46816;DHT22;32787;53.316;8.670;2023-11-22T08:18:21;1.10;96.30
46816;DHT22;32787;53.316;8.670;2023-11-22T08:20:47;1.00;96.20
46816;DHT22;32787;53.316;8.670;2023-11-22T08:23:13;1.00;96.20
46816;DHT22;32787;53.316;8.670;2023-11-22T08:25:40;0.90;96.30
46816;DHT22;32787;53.316;8.670;2023-11-22T08:28:06;0.90;96.30
46816;DHT22;32787;53.316;8.670;2023-11-22T08:30:34;1.00;96.30
46816;DHT22;32787;53.316;8.670;2023-11-22T08:33:01;1.00;96.30
46816;DHT22;32787;53.316;8.670;2023-11-22T08:35:27;1.10;96.30
46816;DHT22;32787;53.316;8.670;2023-11-22T08:37:53;1.10;96.30
46816;DHT22;32787;53.316;8.670;2023-11-22T08:40:19;1.20;96.30
46816;DHT22;32787;53.316;8.670;2023-11-22T08:42:49;1.30;96.40
46816;DHT22;32787;53.316;8.670;2023-11-22T08:45:15;1.40;96.30
46816;DHT22;32787;53.316;8.670;2023-11-22T08:47:41;1.60;96.30
46816;DHT22;32787;53.316;8.670;2023-11-22T08:50:08;1.70;96.30
46816;DHT22;32787;53.316;8.670;2023-11-22T08:52:37;1.60;96.10
46816;DHT22;32787;53.316;8.670;2023-11-22T08:55:04;1.50;96.00
46816;DHT22;32787;53.316;8.670;2023-11-22T08:57:31;1.60;96.10
46816;DHT22;32787;53.316;8.670;2023-11-22T08:59:57;1.50;96.00
46816;DHT22;32787;53.316;8.670;2023-11-22T09:02:27;1.50;96.10
46816;DHT22;32787;53.316;8.670;2023-11-22T09:04:53;1.70;96.10
46816;DHT22;32787;53.316;8.670;2023-11-22T09:07:19;1.90;96.00
46816;DHT22;32787;53.316;8.670;2023-11-22T09:09:47;1.80;96.00
46816;DHT22;32787;53.316;8.670;2023-11-22T09:12:13;1.80;96.00
46816;DHT22;32787;53.316;8.670;2023-11-22T09:14:39;1.90;96.00
46816;DHT22;32787;53.316;8.670;2023-11-22T09:17:07;1.90;96.00
46816;DHT22;32787;53.316;8.670;2023-11-22T09:19:34;1.90;95.80
46816;DHT22;32787;53.316;8.670;2023-11-22T09:22:01;2.00;96.00
46816;DHT22;32787;53.316;8.670;2023-11-22T09:24:27;2.00;95.90
46816;DHT22;32787;53.316;8.670;2023-11-22T09:26:52;2.00;96.00
46816;DHT22;32787;53.316;8.670;2023-11-22T09:29:18;2.10;96.00
46816;DHT22;32787;53.316;8.670;2023-11-22T09:31:44;2.10;96.00
46816;DHT22;32787;53.316;8.670;2023-11-22T09:34:13;2.20;96.00
46816;DHT22;32787;53.316;8.670;2023-11-22T09:36:39;2.30;96.00
46816;DHT22;32787;53.316;8.670;2023-11-22T09:39:04;2.40;95.90
46816;DHT22;32787;53.316;8.670;2023-11-22T09:41:37;2.50;96.00
46816;DHT22;32787;53.316;8.670;2023-11-22T09:44:03;2.60;95.90
46816;DHT22;32787;53.316;8.670;2023-11-22T09:46:30;2.70;95.70
46816;DHT22;32787;53.316;8.670;2023-11-22T09:48:56;2.90;95.90
46816;DHT22;32787;53.316;8.670;2023-11-22T09:51:33;2.70;95.60
46816;DHT22;32787;53.316;8.670;2023-11-22T09:54:06;2.80;95.50
46816;DHT22;32787;53.316;8.670;2023-11-22T09:56:33;2.90;95.40
46816;DHT22;32787;53.316;8.670;2023-11-22T09:59:03;2.90;95.20
46816;DHT22;32787;53.316;8.670;2023-11-22T10:01:29;3.00;95.10
46816;DHT22;32787;53.316;8.670;2023-11-22T10:04:14;3.00;95.00
46816;DHT22;32787;53.316;8.670;2023-11-22T10:06:40;3.20;95.10
46816;DHT22;32787;53.316;8.670;2023-11-22T10:09:11;3.20;94.90
46816;DHT22;32787;53.316;8.670;2023-11-22T10:11:39;3.40;94.60
46816;DHT22;32787;53.316;8.670;2023-11-22T10:14:15;3.30;94.50
46816;DHT22;32787;53.316;8.670;2023-11-22T10:16:58;3.30;94.00
46816;DHT22;32787;53.316;8.670;2023-11-22T10:19:24;3.40;94.10
46816;DHT22;32787;53.316;8.670;2023-11-22T10:22:02;3.50;93.70
46816;DHT22;32787;53.316;8.670;2023-11-22T10:24:31;3.50;93.80
46816;DHT22;32787;53.316;8.670;2023-11-22T10:26:59;3.60;93.70
46816;DHT22;32787;53.316;8.670;2023-11-22T10:29:26;3.80;93.60
46816;DHT22;32787;53.316;8.670;2023-11-22T10:31:52;3.80;93.10
46816;DHT22;32787;53.316;8.670;2023-11-22T10:34:22;3.80;92.40
46816;DHT22;32787;53.316;8.670;2023-11-22T10:36:48;3.90;91.90
46816;DHT22;32787;53.316;8.670;2023-11-22T10:39:21;4.00;91.60
46816;DHT22;32787;53.316;8.670;2023-11-22T10:41:47;4.10;91.30
46816;DHT22;32787;53.316;8.670;2023-11-22T10:44:16;4.00;89.60
46816;DHT22;32787;53.316;8.670;2023-11-22T10:46:41;4.00;89.80
46816;DHT22;32787;53.316;8.670;2023-11-22T10:49:08;4.10;89.20
46816;DHT22;32787;53.316;8.670;2023-11-22T10:51:33;4.10;88.80
46816;DHT22;32787;53.316;8.670;2023-11-22T10:54:00;4.20;88.40
46816;DHT22;32787;53.316;8.670;2023-11-22T10:56:30;4.20;87.90
46816;DHT22;32787;53.316;8.670;2023-11-22T10:58:59;4.20;87.30
46816;DHT22;32787;53.316;8.670;2023-11-22T11:01:27;4.20;86.70
46816;DHT22;32787;53.316;8.670;2023-11-22T11:04:03;4.10;86.50
46816;DHT22;32787;53.316;8.670;2023-11-22T11:06:34;4.00;87.20
46816;DHT22;32787;53.316;8.670;2023-11-22T11:09:03;4.10;87.70
46816;DHT22;32787;53.316;8.670;2023-11-22T11:11:38;4.30;86.60
46816;DHT22;32787;53.316;8.670;2023-11-22T11:14:05;4.40;86.10
46816;DHT22;32787;53.316;8.670;2023-11-22T11:16:34;4.40;85.60
46816;DHT22;32787;53.316;8.670;2023-11-22T11:19:04;4.50;85.70
46816;DHT22;32787;53.316;8.670;2023-11-22T11:21:33;4.90;84.00
46816;DHT22;32787;53.316;8.670;2023-11-22T11:23:58;4.80;83.20
46816;DHT22;32787;53.316;8.670;2023-11-22T11:26:28;4.80;82.90
46816;DHT22;32787;53.316;8.670;2023-11-22T11:28:57;4.90;82.00
46816;DHT22;32787;53.316;8.670;2023-11-22T11:31:22;4.80;80.80
46816;DHT22;32787;53.316;8.670;2023-11-22T11:36:32;4.90;79.70
46816;DHT22;32787;53.316;8.670;2023-11-22T11:39:01;4.90;79.50
46816;DHT22;32787;53.316;8.670;2023-11-22T11:41:32;4.90;76.90
46816;DHT22;32787;53.316;8.670;2023-11-22T11:44:01;4.90;78.90
46816;DHT22;32787;53.316;8.670;2023-11-22T11:46:28;4.90;78.40
46816;DHT22;32787;53.316;8.670;2023-11-22T11:48:55;4.90;79.10
46816;DHT22;32787;53.316;8.670;2023-11-22T11:51:28;5.00;78.50
46816;DHT22;32787;53.316;8.670;2023-11-22T11:53:54;5.10;77.00
46816;DHT22;32787;53.316;8.670;2023-11-22T11:56:21;4.90;77.90
46816;DHT22;32787;53.316;8.670;2023-11-22T11:58:48;5.00;77.00
46816;DHT22;32787;53.316;8.670;2023-11-22T12:01:17;5.00;77.30
46816;DHT22;32787;53.316;8.670;2023-11-22T12:03:45;5.10;77.00
46816;DHT22;32787;53.316;8.670;2023-11-22T12:06:14;4.90;77.40
46816;DHT22;32787;53.316;8.670;2023-11-22T12:08:40;5.00;77.10
46816;DHT22;32787;53.316;8.670;2023-11-22T12:11:06;5.10;77.30
46816;DHT22;32787;53.316;8.670;2023-11-22T12:13:34;5.20;77.00
46816;DHT22;32787;53.316;8.670;2023-11-22T12:16:01;5.20;77.20
46816;DHT22;32787;53.316;8.670;2023-11-22T12:18:28;5.10;75.90
46816;DHT22;32787;53.316;8.670;2023-11-22T12:20:58;5.10;76.90
46816;DHT22;32787;53.316;8.670;2023-11-22T12:23:29;5.30;77.00
46816;DHT22;32787;53.316;8.670;2023-11-22T12:25:59;5.30;76.60
46816;DHT22;32787;53.316;8.670;2023-11-22T12:28:28;5.30;76.30
46816;DHT22;32787;53.316;8.670;2023-11-22T12:30:53;5.30;76.40
46816;DHT22;32787;53.316;8.670;2023-11-22T12:33:19;5.30;74.50
46816;DHT22;32787;53.316;8.670;2023-11-22T12:35:48;5.10;76.50
46816;DHT22;32787;53.316;8.670;2023-11-22T12:38:14;5.00;77.20
46816;DHT22;32787;53.316;8.670;2023-11-22T12:40:45;5.00;75.70
46816;DHT22;32787;53.316;8.670;2023-11-22T12:43:13;5.10;75.80
46816;DHT22;32787;53.316;8.670;2023-11-22T12:45:41;5.00;76.60
46816;DHT22;32787;53.316;8.670;2023-11-22T12:48:21;5.30;74.40
46816;DHT22;32787;53.316;8.670;2023-11-22T12:50:49;5.10;74.70
46816;DHT22;32787;53.316;8.670;2023-11-22T12:53:15;5.10;75.80
46816;DHT22;32787;53.316;8.670;2023-11-22T12:55:49;5.10;75.40
46816;DHT22;32787;53.316;8.670;2023-11-22T12:58:15;5.20;75.40
46816;DHT22;32787;53.316;8.670;2023-11-22T13:00:43;5.10;74.40
46816;DHT22;32787;53.316;8.670;2023-11-22T13:03:09;5.00;74.70
46816;DHT22;32787;53.316;8.670;2023-11-22T13:05:41;4.90;75.20
46816;DHT22;32787;53.316;8.670;2023-11-22T13:08:11;4.80;76.10
46816;DHT22;32787;53.316;8.670;2023-11-22T13:10:46;4.80;75.70
46816;DHT22;32787;53.316;8.670;2023-11-22T13:13:20;4.70;76.90
46816;DHT22;32787;53.316;8.670;2023-11-22T13:15:46;4.70;77.40
46816;DHT22;32787;53.316;8.670;2023-11-22T13:18:11;4.50;78.10
46816;DHT22;32787;53.316;8.670;2023-11-22T13:20:37;4.50;76.80
46816;DHT22;32787;53.316;8.670;2023-11-22T13:23:06;4.60;78.50
46816;DHT22;32787;53.316;8.670;2023-11-22T13:25:33;4.70;77.90
46816;DHT22;32787;53.316;8.670;2023-11-22T13:27:58;4.60;78.60
46816;DHT22;32787;53.316;8.670;2023-11-22T13:30:25;4.80;77.70
46816;DHT22;32787;53.316;8.670;2023-11-22T13:32:52;4.60;77.50
46816;DHT22;32787;53.316;8.670;2023-11-22T13:35:18;4.50;78.40
46816;DHT22;32787;53.316;8.670;2023-11-22T13:37:44;4.50;78.00
46816;DHT22;32787;53.316;8.670;2023-11-22T13:40:18;4.50;79.00
46816;DHT22;32787;53.316;8.670;2023-11-22T13:42:52;4.40;79.30
46816;DHT22;32787;53.316;8.670;2023-11-22T13:45:19;4.30;80.10
46816;DHT22;32787;53.316;8.670;2023-11-22T13:47:50;4.40;78.30
46816;DHT22;32787;53.316;8.670;2023-11-22T13:50:19;4.40;76.60
46816;DHT22;32787;53.316;8.670;2023-11-22T13:52:54;4.40;77.70
46816;DHT22;32787;53.316;8.670;2023-11-22T13:55:20;4.50;77.20
46816;DHT22;32787;53.316;8.670;2023-11-22T13:57:50;4.40;76.30
46816;DHT22;32787;53.316;8.670;2023-11-22T14:00:17;4.30;77.10
46816;DHT22;32787;53.316;8.670;2023-11-22T14:02:49;4.20;76.00
46816;DHT22;32787;53.316;8.670;2023-11-22T14:05:17;4.30;76.70
46816;DHT22;32787;53.316;8.670;2023-11-22T14:07:43;4.20;77.10
46816;DHT22;32787;53.316;8.670;2023-11-22T14:10:10;4.20;76.80
46816;DHT22;32787;53.316;8.670;2023-11-22T14:12:36;4.30;76.60
46816;DHT22;32787;53.316;8.670;2023-11-22T14:15:03;4.30;77.70
46816;DHT22;32787;53.316;8.670;2023-11-22T14:17:32;4.20;77.60
46816;DHT22;32787;53.316;8.670;2023-11-22T14:19:58;4.40;77.00
46816;DHT22;32787;53.316;8.670;2023-11-22T14:22:24;4.30;78.10
46816;DHT22;32787;53.316;8.670;2023-11-22T14:24:50;4.30;76.90
46816;DHT22;32787;53.316;8.670;2023-11-22T14:27:19;4.30;76.10
46816;DHT22;32787;53.316;8.670;2023-11-22T14:29:47;4.40;76.70
46816;DHT22;32787;53.316;8.670;2023-11-22T14:32:16;4.20;76.00
46816;DHT22;32787;53.316;8.670;2023-11-22T14:34:42;4.20;76.10
46816;DHT22;32787;53.316;8.670;2023-11-22T14:37:09;4.20;74.60
46816;DHT22;32787;53.316;8.670;2023-11-22T14:39:35;4.20;76.20
46816;DHT22;32787;53.316;8.670;2023-11-22T14:42:01;4.20;76.00
46816;DHT22;32787;53.316;8.670;2023-11-22T14:44:27;4.20;76.40
46816;DHT22;32787;53.316;8.670;2023-11-22T14:46:52;4.30;75.40
46816;DHT22;32787;53.316;8.670;2023-11-22T14:49:18;4.10;75.60
46816;DHT22;32787;53.316;8.670;2023-11-22T14:51:46;4.10;74.80
46816;DHT22;32787;53.316;8.670;2023-11-22T14:54:12;4.20;74.40
46816;DHT22;32787;53.316;8.670;2023-11-22T14:56:37;4.10;74.70
46816;DHT22;32787;53.316;8.670;2023-11-22T14:59:04;4.10;74.90
46816;DHT22;32787;53.316;8.670;2023-11-22T15:01:30;4.30;74.70
46816;DHT22;32787;53.316;8.670;2023-11-22T15:03:55;4.10;75.90
46816;DHT22;32787;53.316;8.670;2023-11-22T15:06:21;4.30;75.90
46816;DHT22;32787;53.316;8.670;2023-11-22T15:08:47;4.10;74.00
46816;DHT22;32787;53.316;8.670;2023-11-22T15:11:16;4.10;74.30
46816;DHT22;32787;53.316;8.670;2023-11-22T15:13:44;4.10;74.20
46816;DHT22;32787;53.316;8.670;2023-11-22T15:16:10;4.00;74.50
46816;DHT22;32787;53.316;8.670;2023-11-22T15:18:41;4.00;74.60
46816;DHT22;32787;53.316;8.670;2023-11-22T15:21:07;4.10;73.80
46816;DHT22;32787;53.316;8.670;2023-11-22T15:23:33;4.10;74.40
46816;DHT22;32787;53.316;8.670;2023-11-22T15:25:59;3.90;75.00
46816;DHT22;32787;53.316;8.670;2023-11-22T15:28:25;4.10;74.20
46816;DHT22;32787;53.316;8.670;2023-11-22T15:30:51;4.00;74.60
46816;DHT22;32787;53.316;8.670;2023-11-22T15:33:25;3.90;75.60